sensor_id;sensor_type;location;lat;lon;timestamp;temperature;humidity
44695;DHT22;32845;59.422;17.930;2023-05-29T00:01:55;11.90;99.90
44695;DHT22;32845;59.422;17.930;2023-05-29T00:06:26;11.80;99.90
44695;DHT22;32845;59.422;17.930;2023-05-29T00:10:56;11.80;99.90
44695;DHT22;32845;59.422;17.930;2023-05-29T00:15:28;11.80;99.90
44695;DHT22;32845;59.422;17.930;2023-05-29T00:19:59;11.80;99.90
44695;DHT22;32845;59.422;17.930;2023-05-29T00:24:31;11.70;99.90
44695;DHT22;32845;59.422;17.930;2023-05-29T00:29:02;11.70;99.90
44695;DHT22;32845;59.422;17.930;2023-05-29T00:33:32;11.70;99.90
44695;DHT22;32845;59.422;17.930;2023-05-29T00:38:03;11.70;99.90
44695;DHT22;32845;59.422;17.930;2023-05-29T00:42:34;11.70;99.90
44695;DHT22;32845;59.422;17.930;2023-05-29T00:47:04;11.70;99.90
44695;DHT22;32845;59.422;17.930;2023-05-29T00:51:36;11.70;99.90
44695;DHT22;32845;59.422;17.930;2023-05-29T00:56:07;11.70;99.90
44695;DHT22;32845;59.422;17.930;2023-05-29T01:00:38;11.60;99.90
44695;DHT22;32845;59.422;17.930;2023-05-29T01:05:09;11.60;99.90
44695;DHT22;32845;59.422;17.930;2023-05-29T01:09:40;11.60;99.90
44695;DHT22;32845;59.422;17.930;2023-05-29T01:14:33;11.50;99.90
44695;DHT22;32845;59.422;17.930;2023-05-29T01:24:37;11.40;99.90
44695;DHT22;32845;59.422;17.930;2023-05-29T01:29:12;11.30;99.90
44695;DHT22;32845;59.422;17.930;2023-05-29T01:33:55;11.20;99.90
44695;DHT22;32845;59.422;17.930;2023-05-29T01:38:25;11.10;99.90
44695;DHT22;32845;59.422;17.930;2023-05-29T01:42:56;11.00;99.90
44695;DHT22;32845;59.422;17.930;2023-05-29T01:47:26;10.90;99.90
44695;DHT22;32845;59.422;17.930;2023-05-29T01:51:58;10.80;99.90
44695;DHT22;32845;59.422;17.930;2023-05-29T01:56:29;10.70;99.90
44695;DHT22;32845;59.422;17.930;2023-05-29T02:01:02;10.60;99.90
44695;DHT22;32845;59.422;17.930;2023-05-29T02:05:34;10.50;99.90
44695;DHT22;32845;59.422;17.930;2023-05-29T02:10:05;10.40;99.90
44695;DHT22;32845;59.422;17.930;2023-05-29T02:14:35;10.40;99.90
44695;DHT22;32845;59.422;17.930;2023-05-29T02:19:07;10.30;99.90
44695;DHT22;32845;59.422;17.930;2023-05-29T02:23:38;10.20;99.90
44695;DHT22;32845;59.422;17.930;2023-05-29T02:28:09;10.10;99.90
44695;DHT22;32845;59.422;17.930;2023-05-29T02:32:39;10.10;99.90
44695;DHT22;32845;59.422;17.930;2023-05-29T02:37:11;10.00;99.90
44695;DHT22;32845;59.422;17.930;2023-05-29T02:41:41;10.00;99.90
44695;DHT22;32845;59.422;17.930;2023-05-29T02:46:12;9.90;99.90
44695;DHT22;32845;59.422;17.930;2023-05-29T02:50:43;9.90;99.90
44695;DHT22;32845;59.422;17.930;2023-05-29T02:55:13;9.80;99.90
44695;DHT22;32845;59.422;17.930;2023-05-29T02:59:44;9.80;99.90
44695;DHT22;32845;59.422;17.930;2023-05-29T03:04:16;9.80;99.90
44695;DHT22;32845;59.422;17.930;2023-05-29T03:08:49;9.80;99.90
44695;DHT22;32845;59.422;17.930;2023-05-29T03:13:20;9.90;99.90
44695;DHT22;32845;59.422;17.930;2023-05-29T03:17:50;9.90;99.90
44695;DHT22;32845;59.422;17.930;2023-05-29T03:22:21;9.90;99.90
44695;DHT22;32845;59.422;17.930;2023-05-29T03:26:52;9.90;99.90
44695;DHT22;32845;59.422;17.930;2023-05-29T03:31:22;9.90;99.90
44695;DHT22;32845;59.422;17.930;2023-05-29T03:35:53;9.90;99.90
44695;DHT22;32845;59.422;17.930;2023-05-29T03:40:23;9.80;99.90
44695;DHT22;32845;59.422;17.930;2023-05-29T03:44:54;9.80;99.90
44695;DHT22;32845;59.422;17.930;2023-05-29T03:49:24;9.80;99.90
44695;DHT22;32845;59.422;17.930;2023-05-29T03:53:55;9.80;99.90
44695;DHT22;32845;59.422;17.930;2023-05-29T03:58:25;9.70;99.90
44695;DHT22;32845;59.422;17.930;2023-05-29T04:02:56;9.70;99.90
44695;DHT22;32845;59.422;17.930;2023-05-29T04:07:27;9.70;99.90
44695;DHT22;32845;59.422;17.930;2023-05-29T04:11:58;9.70;99.90
44695;DHT22;32845;59.422;17.930;2023-05-29T04:16:29;9.60;99.90
44695;DHT22;32845;59.422;17.930;2023-05-29T04:21:00;9.60;99.90
44695;DHT22;32845;59.422;17.930;2023-05-29T04:25:31;9.70;99.90
44695;DHT22;32845;59.422;17.930;2023-05-29T04:30:06;9.60;99.90
44695;DHT22;32845;59.422;17.930;2023-05-29T04:34:37;9.70;99.90
44695;DHT22;32845;59.422;17.930;2023-05-29T04:39:09;9.70;99.90
44695;DHT22;32845;59.422;17.930;2023-05-29T04:43:40;9.70;99.90
44695;DHT22;32845;59.422;17.930;2023-05-29T04:48:10;9.70;99.90
44695;DHT22;32845;59.422;17.930;2023-05-29T04:52:41;9.80;99.90
44695;DHT22;32845;59.422;17.930;2023-05-29T04:57:12;9.80;99.90
44695;DHT22;32845;59.422;17.930;2023-05-29T05:01:43;9.90;99.90
44695;DHT22;32845;59.422;17.930;2023-05-29T05:06:14;9.90;99.90
44695;DHT22;32845;59.422;17.930;2023-05-29T05:10:47;10.00;99.90
44695;DHT22;32845;59.422;17.930;2023-05-29T05:15:17;10.10;99.90
44695;DHT22;32845;59.422;17.930;2023-05-29T05:19:48;10.10;99.90
44695;DHT22;32845;59.422;17.930;2023-05-29T05:24:19;10.10;99.90
44695;DHT22;32845;59.422;17.930;2023-05-29T05:28:50;10.20;99.90
44695;DHT22;32845;59.422;17.930;2023-05-29T05:33:21;10.20;99.90
44695;DHT22;32845;59.422;17.930;2023-05-29T05:37:51;10.30;99.90
44695;DHT22;32845;59.422;17.930;2023-05-29T05:42:22;10.40;99.90
44695;DHT22;32845;59.422;17.930;2023-05-29T05:46:52;10.40;99.90
44695;DHT22;32845;59.422;17.930;2023-05-29T05:51:25;10.50;99.90
44695;DHT22;32845;59.422;17.930;2023-05-29T05:55:55;10.50;99.90
44695;DHT22;32845;59.422;17.930;2023-05-29T06:00:31;10.60;99.90
44695;DHT22;32845;59.422;17.930;2023-05-29T06:05:01;10.70;99.90
44695;DHT22;32845;59.422;17.930;2023-05-29T06:09:34;10.70;99.90
44695;DHT22;32845;59.422;17.930;2023-05-29T06:14:04;10.70;99.90
44695;DHT22;32845;59.422;17.930;2023-05-29T06:18:35;10.80;99.90
44695;DHT22;32845;59.422;17.930;2023-05-29T06:23:06;10.80;99.90
44695;DHT22;32845;59.422;17.930;2023-05-29T06:27:36;10.90;99.90
44695;DHT22;32845;59.422;17.930;2023-05-29T06:32:07;11.00;99.90
44695;DHT22;32845;59.422;17.930;2023-05-29T06:36:38;11.10;99.90
44695;DHT22;32845;59.422;17.930;2023-05-29T06:41:10;11.20;99.90
44695;DHT22;32845;59.422;17.930;2023-05-29T06:45:41;11.30;99.90
44695;DHT22;32845;59.422;17.930;2023-05-29T06:50:11;11.30;99.90
44695;DHT22;32845;59.422;17.930;2023-05-29T06:54:43;11.30;99.90
44695;DHT22;32845;59.422;17.930;2023-05-29T06:59:13;11.40;99.90
44695;DHT22;32845;59.422;17.930;2023-05-29T07:03:45;11.50;99.90
44695;DHT22;32845;59.422;17.930;2023-05-29T07:08:16;11.60;99.90
44695;DHT22;32845;59.422;17.930;2023-05-29T07:12:47;11.70;99.70
44695;DHT22;32845;59.422;17.930;2023-05-29T07:17:17;11.70;99.20
44695;DHT22;32845;59.422;17.930;2023-05-29T07:21:48;11.80;98.10
44695;DHT22;32845;59.422;17.930;2023-05-29T07:26:19;11.80;98.20
44695;DHT22;32845;59.422;17.930;2023-05-29T07:30:51;11.90;98.20
44695;DHT22;32845;59.422;17.930;2023-05-29T07:35:21;12.00;97.90
44695;DHT22;32845;59.422;17.930;2023-05-29T07:39:52;12.10;97.20
44695;DHT22;32845;59.422;17.930;2023-05-29T07:44:23;12.20;97.20
44695;DHT22;32845;59.422;17.930;2023-05-29T07:48:53;12.30;96.20
44695;DHT22;32845;59.422;17.930;2023-05-29T07:53:24;12.30;95.60
44695;DHT22;32845;59.422;17.930;2023-05-29T07:57:55;12.40;95.30
44695;DHT22;32845;59.422;17.930;2023-05-29T08:02:25;12.40;93.30
44695;DHT22;32845;59.422;17.930;2023-05-29T08:06:56;12.40;94.60
44695;DHT22;32845;59.422;17.930;2023-05-29T08:11:27;12.50;94.60
44695;DHT22;32845;59.422;17.930;2023-05-29T08:15:58;12.70;94.30
44695;DHT22;32845;59.422;17.930;2023-05-29T08:20:28;12.80;93.90
44695;DHT22;32845;59.422;17.930;2023-05-29T08:24:59;12.90;93.70
44695;DHT22;32845;59.422;17.930;2023-05-29T08:29:30;13.00;93.50
44695;DHT22;32845;59.422;17.930;2023-05-29T08:34:01;13.10;93.20
44695;DHT22;32845;59.422;17.930;2023-05-29T08:38:31;13.10;92.90
44695;DHT22;32845;59.422;17.930;2023-05-29T08:43:32;13.20;93.20
44695;DHT22;32845;59.422;17.930;2023-05-29T08:48:01;13.40;92.80
44695;DHT22;32845;59.422;17.930;2023-05-29T08:52:34;13.50;92.80
44695;DHT22;32845;59.422;17.930;2023-05-29T08:57:08;13.70;92.50
44695;DHT22;32845;59.422;17.930;2023-05-29T09:01:40;13.80;92.20
44695;DHT22;32845;59.422;17.930;2023-05-29T09:06:10;14.00;91.80
44695;DHT22;32845;59.422;17.930;2023-05-29T09:10:42;14.20;91.20
44695;DHT22;32845;59.422;17.930;2023-05-29T09:15:21;14.20;90.20
44695;DHT22;32845;59.422;17.930;2023-05-29T09:19:52;14.20;89.60
44695;DHT22;32845;59.422;17.930;2023-05-29T09:24:22;14.20;90.80
44695;DHT22;32845;59.422;17.930;2023-05-29T09:28:53;14.30;91.20
44695;DHT22;32845;59.422;17.930;2023-05-29T09:33:25;14.60;90.90
44695;DHT22;32845;59.422;17.930;2023-05-29T09:37:55;14.80;90.80
44695;DHT22;32845;59.422;17.930;2023-05-29T09:42:26;14.90;90.40
44695;DHT22;32845;59.422;17.930;2023-05-29T09:46:59;15.00;89.30
44695;DHT22;32845;59.422;17.930;2023-05-29T09:51:30;15.00;86.00
44695;DHT22;32845;59.422;17.930;2023-05-29T09:56:01;15.00;89.30
44695;DHT22;32845;59.422;17.930;2023-05-29T10:00:34;15.20;88.90
44695;DHT22;32845;59.422;17.930;2023-05-29T10:05:05;15.20;89.40
44695;DHT22;32845;59.422;17.930;2023-05-29T10:09:42;15.30;89.20
44695;DHT22;32845;59.422;17.930;2023-05-29T10:14:17;15.50;90.10
44695;DHT22;32845;59.422;17.930;2023-05-29T10:18:56;15.60;88.30
44695;DHT22;32845;59.422;17.930;2023-05-29T10:23:29;15.70;87.50
44695;DHT22;32845;59.422;17.930;2023-05-29T10:28:00;15.80;87.80
44695;DHT22;32845;59.422;17.930;2023-05-29T10:37:36;15.80;84.30
44695;DHT22;32845;59.422;17.930;2023-05-29T10:42:47;15.80;86.10
44695;DHT22;32845;59.422;17.930;2023-05-29T10:47:25;15.90;85.30
44695;DHT22;32845;59.422;17.930;2023-05-29T10:51:57;15.80;84.80
44695;DHT22;32845;59.422;17.930;2023-05-29T10:56:29;15.90;86.20
44695;DHT22;32845;59.422;17.930;2023-05-29T11:01:00;16.20;86.30
44695;DHT22;32845;59.422;17.930;2023-05-29T11:05:31;16.40;84.70
44695;DHT22;32845;59.422;17.930;2023-05-29T11:10:11;16.60;84.90
44695;DHT22;32845;59.422;17.930;2023-05-29T11:14:45;16.70;82.30
44695;DHT22;32845;59.422;17.930;2023-05-29T11:19:16;16.70;81.90
44695;DHT22;32845;59.422;17.930;2023-05-29T11:23:47;16.80;80.50
44695;DHT22;32845;59.422;17.930;2023-05-29T11:28:20;16.80;82.80
44695;DHT22;32845;59.422;17.930;2023-05-29T11:32:52;17.00;83.10
44695;DHT22;32845;59.422;17.930;2023-05-29T11:37:23;17.30;83.00
44695;DHT22;32845;59.422;17.930;2023-05-29T11:41:55;17.40;82.60
44695;DHT22;32845;59.422;17.930;2023-05-29T11:46:25;17.50;83.00
44695;DHT22;32845;59.422;17.930;2023-05-29T11:50:58;17.70;82.50
44695;DHT22;32845;59.422;17.930;2023-05-29T11:55:30;17.80;81.80
44695;DHT22;32845;59.422;17.930;2023-05-29T12:00:01;17.90;81.50
44695;DHT22;32845;59.422;17.930;2023-05-29T12:04:32;17.90;80.70
44695;DHT22;32845;59.422;17.930;2023-05-29T12:09:02;18.00;78.30
44695;DHT22;32845;59.422;17.930;2023-05-29T12:13:34;18.30;80.90
44695;DHT22;32845;59.422;17.930;2023-05-29T12:18:05;19.10;80.30
44695;DHT22;32845;59.422;17.930;2023-05-29T12:22:37;19.90;76.80
44695;DHT22;32845;59.422;17.930;2023-05-29T12:27:09;20.20;74.80
44695;DHT22;32845;59.422;17.930;2023-05-29T12:31:39;20.10;74.20
44695;DHT22;32845;59.422;17.930;2023-05-29T12:36:12;20.00;73.00
44695;DHT22;32845;59.422;17.930;2023-05-29T12:40:48;19.70;73.80
44695;DHT22;32845;59.422;17.930;2023-05-29T12:45:20;19.60;74.20
44695;DHT22;32845;59.422;17.930;2023-05-29T12:49:52;19.60;75.00
44695;DHT22;32845;59.422;17.930;2023-05-29T12:54:22;19.70;75.20
44695;DHT22;32845;59.422;17.930;2023-05-29T12:58:53;19.70;74.70
44695;DHT22;32845;59.422;17.930;2023-05-29T13:03:23;19.70;74.50
44695;DHT22;32845;59.422;17.930;2023-05-29T13:07:54;19.60;75.20
44695;DHT22;32845;59.422;17.930;2023-05-29T13:12:25;19.40;75.30
44695;DHT22;32845;59.422;17.930;2023-05-29T13:16:56;19.30;75.70
44695;DHT22;32845;59.422;17.930;2023-05-29T13:21:26;19.30;75.40
44695;DHT22;32845;59.422;17.930;2023-05-29T13:25:57;19.20;75.50
44695;DHT22;32845;59.422;17.930;2023-05-29T13:30:27;19.20;75.40
44695;DHT22;32845;59.422;17.930;2023-05-29T13:34:58;19.10;75.70
44695;DHT22;32845;59.422;17.930;2023-05-29T13:39:29;19.10;75.30
44695;DHT22;32845;59.422;17.930;2023-05-29T13:43:59;19.10;74.60
44695;DHT22;32845;59.422;17.930;2023-05-29T13:48:31;19.10;75.00
44695;DHT22;32845;59.422;17.930;2023-05-29T13:53:04;19.00;74.70
44695;DHT22;32845;59.422;17.930;2023-05-29T13:57:35;18.90;75.30
44695;DHT22;32845;59.422;17.930;2023-05-29T14:02:07;18.70;74.40
44695;DHT22;32845;59.422;17.930;2023-05-29T14:06:38;18.80;75.40
44695;DHT22;32845;59.422;17.930;2023-05-29T14:11:09;18.80;75.60
44695;DHT22;32845;59.422;17.930;2023-05-29T14:15:40;18.70;75.20
44695;DHT22;32845;59.422;17.930;2023-05-29T14:20:10;18.70;75.00
44695;DHT22;32845;59.422;17.930;2023-05-29T14:24:41;18.60;74.60
44695;DHT22;32845;59.422;17.930;2023-05-29T14:29:13;18.70;74.90
44695;DHT22;32845;59.422;17.930;2023-05-29T14:33:44;18.70;75.20
44695;DHT22;32845;59.422;17.930;2023-05-29T14:38:14;18.70;74.90
44695;DHT22;32845;59.422;17.930;2023-05-29T14:42:45;18.70;73.20
44695;DHT22;32845;59.422;17.930;2023-05-29T14:47:16;18.60;73.00
44695;DHT22;32845;59.422;17.930;2023-05-29T14:51:48;18.50;73.20
44695;DHT22;32845;59.422;17.930;2023-05-29T14:56:19;18.50;72.80
44695;DHT22;32845;59.422;17.930;2023-05-29T15:00:50;18.40;73.10
44695;DHT22;32845;59.422;17.930;2023-05-29T15:05:20;18.40;72.90
44695;DHT22;32845;59.422;17.930;2023-05-29T15:09:51;18.40;73.40
44695;DHT22;32845;59.422;17.930;2023-05-29T15:14:22;18.30;71.30
44695;DHT22;32845;59.422;17.930;2023-05-29T15:18:53;18.20;71.30
44695;DHT22;32845;59.422;17.930;2023-05-29T15:23:25;18.10;72.00
44695;DHT22;32845;59.422;17.930;2023-05-29T15:27:56;18.00;72.90
44695;DHT22;32845;59.422;17.930;2023-05-29T15:32:26;18.00;72.40
44695;DHT22;32845;59.422;17.930;2023-05-29T15:36:57;17.90;71.90
44695;DHT22;32845;59.422;17.930;2023-05-29T15:41:28;17.90;71.50
44695;DHT22;32845;59.422;17.930;2023-05-29T15:45:59;17.80;71.90
44695;DHT22;32845;59.422;17.930;2023-05-29T15:50:30;17.70;72.20
44695;DHT22;32845;59.422;17.930;2023-05-29T15:55:01;17.70;71.20
44695;DHT22;32845;59.422;17.930;2023-05-29T15:59:32;17.60;70.70
44695;DHT22;32845;59.422;17.930;2023-05-29T16:04:03;17.60;70.10
44695;DHT22;32845;59.422;17.930;2023-05-29T16:08:33;17.60;69.80
44695;DHT22;32845;59.422;17.930;2023-05-29T16:13:04;17.50;69.20
44695;DHT22;32845;59.422;17.930;2023-05-29T16:17:35;17.50;69.20
44695;DHT22;32845;59.422;17.930;2023-05-29T16:22:06;17.40;68.10
44695;DHT22;32845;59.422;17.930;2023-05-29T16:26:37;17.30;67.20
44695;DHT22;32845;59.422;17.930;2023-05-29T16:31:07;17.30;66.90
44695;DHT22;32845;59.422;17.930;2023-05-29T16:35:38;17.30;66.90
44695;DHT22;32845;59.422;17.930;2023-05-29T16:40:09;17.20;67.00
44695;DHT22;32845;59.422;17.930;2023-05-29T16:44:40;17.20;67.20
44695;DHT22;32845;59.422;17.930;2023-05-29T16:49:10;17.20;67.30
44695;DHT22;32845;59.422;17.930;2023-05-29T16:53:41;17.10;67.60
44695;DHT22;32845;59.422;17.930;2023-05-29T16:58:12;17.10;68.10
44695;DHT22;32845;59.422;17.930;2023-05-29T17:02:42;17.00;68.10
44695;DHT22;32845;59.422;17.930;2023-05-29T17:07:13;17.00;67.60
44695;DHT22;32845;59.422;17.930;2023-05-29T17:11:44;16.90;67.70
44695;DHT22;32845;59.422;17.930;2023-05-29T17:16:14;16.90;66.70
44695;DHT22;32845;59.422;17.930;2023-05-29T17:20:45;16.80;66.10
44695;DHT22;32845;59.422;17.930;2023-05-29T17:25:17;16.70;66.60
44695;DHT22;32845;59.422;17.930;2023-05-29T17:29:48;16.60;67.50
44695;DHT22;32845;59.422;17.930;2023-05-29T17:34:18;16.60;65.60
44695;DHT22;32845;59.422;17.930;2023-05-29T17:38:49;16.50;65.70
44695;DHT22;32845;59.422;17.930;2023-05-29T17:43:22;16.50;65.80
44695;DHT22;32845;59.422;17.930;2023-05-29T17:47:52;16.40;66.40
44695;DHT22;32845;59.422;17.930;2023-05-29T17:52:23;16.40;67.80
44695;DHT22;32845;59.422;17.930;2023-05-29T17:56:54;16.30;68.90
44695;DHT22;32845;59.422;17.930;2023-05-29T18:01:24;16.30;69.80
44695;DHT22;32845;59.422;17.930;2023-05-29T18:05:55;16.30;69.50
44695;DHT22;32845;59.422;17.930;2023-05-29T18:10:31;16.20;68.60
44695;DHT22;32845;59.422;17.930;2023-05-29T18:15:02;16.20;68.80
44695;DHT22;32845;59.422;17.930;2023-05-29T18:19:35;16.10;70.40
44695;DHT22;32845;59.422;17.930;2023-05-29T18:24:07;16.00;70.20
44695;DHT22;32845;59.422;17.930;2023-05-29T18:28:38;15.90;70.80
44695;DHT22;32845;59.422;17.930;2023-05-29T18:33:10;15.70;71.30
44695;DHT22;32845;59.422;17.930;2023-05-29T18:37:40;15.60;72.30
44695;DHT22;32845;59.422;17.930;2023-05-29T18:42:11;15.50;73.10
44695;DHT22;32845;59.422;17.930;2023-05-29T18:46:41;15.40;73.10
44695;DHT22;32845;59.422;17.930;2023-05-29T18:51:12;15.30;74.20
44695;DHT22;32845;59.422;17.930;2023-05-29T18:55:43;15.10;75.50
44695;DHT22;32845;59.422;17.930;2023-05-29T19:00:13;14.90;75.70
44695;DHT22;32845;59.422;17.930;2023-05-29T19:04:45;14.80;76.40
44695;DHT22;32845;59.422;17.930;2023-05-29T19:09:16;14.60;77.60
44695;DHT22;32845;59.422;17.930;2023-05-29T19:13:46;14.40;78.20
44695;DHT22;32845;59.422;17.930;2023-05-29T19:18:18;14.30;77.90
44695;DHT22;32845;59.422;17.930;2023-05-29T19:22:52;14.20;78.90
44695;DHT22;32845;59.422;17.930;2023-05-29T19:27:22;14.00;80.20
44695;DHT22;32845;59.422;17.930;2023-05-29T19:31:53;13.90;79.80
44695;DHT22;32845;59.422;17.930;2023-05-29T19:36:24;13.70;81.00
44695;DHT22;32845;59.422;17.930;2023-05-29T19:40:55;13.60;81.10
44695;DHT22;32845;59.422;17.930;2023-05-29T19:45:26;13.40;82.00
44695;DHT22;32845;59.422;17.930;2023-05-29T19:49:56;13.20;82.80
44695;DHT22;32845;59.422;17.930;2023-05-29T19:54:33;13.10;83.20
44695;DHT22;32845;59.422;17.930;2023-05-29T19:59:03;12.90;83.40
44695;DHT22;32845;59.422;17.930;2023-05-29T20:03:34;12.80;83.50
44695;DHT22;32845;59.422;17.930;2023-05-29T20:08:05;12.60;83.90
44695;DHT22;32845;59.422;17.930;2023-05-29T20:12:35;12.50;84.50
44695;DHT22;32845;59.422;17.930;2023-05-29T20:17:06;12.40;85.20
44695;DHT22;32845;59.422;17.930;2023-05-29T20:21:37;12.20;86.00
44695;DHT22;32845;59.422;17.930;2023-05-29T20:26:07;12.10;86.40
44695;DHT22;32845;59.422;17.930;2023-05-29T20:30:38;12.00;87.20
44695;DHT22;32845;59.422;17.930;2023-05-29T20:35:09;11.90;87.70
44695;DHT22;32845;59.422;17.930;2023-05-29T20:39:40;11.80;88.10
44695;DHT22;32845;59.422;17.930;2023-05-29T20:44:10;11.70;88.70
44695;DHT22;32845;59.422;17.930;2023-05-29T20:48:41;11.70;89.10
44695;DHT22;32845;59.422;17.930;2023-05-29T20:53:17;11.60;89.30
44695;DHT22;32845;59.422;17.930;2023-05-29T20:57:48;11.50;89.90
44695;DHT22;32845;59.422;17.930;2023-05-29T21:02:18;11.50;90.10
44695;DHT22;32845;59.422;17.930;2023-05-29T21:06:49;11.40;90.30
44695;DHT22;32845;59.422;17.930;2023-05-29T21:11:20;11.30;90.40
44695;DHT22;32845;59.422;17.930;2023-05-29T21:15:52;11.30;90.60
44695;DHT22;32845;59.422;17.930;2023-05-29T21:20:23;11.20;90.60
44695;DHT22;32845;59.422;17.930;2023-05-29T21:24:54;11.10;90.50
44695;DHT22;32845;59.422;17.930;2023-05-29T21:29:25;11.00;90.80
44695;DHT22;32845;59.422;17.930;2023-05-29T21:33:55;11.00;90.60
44695;DHT22;32845;59.422;17.930;2023-05-29T21:38:26;10.90;91.20
44695;DHT22;32845;59.422;17.930;2023-05-29T21:42:56;10.90;91.30
44695;DHT22;32845;59.422;17.930;2023-05-29T21:47:27;10.80;91.10
44695;DHT22;32845;59.422;17.930;2023-05-29T21:51:58;10.80;91.20
44695;DHT22;32845;59.422;17.930;2023-05-29T21:56:28;10.70;91.80
44695;DHT22;32845;59.422;17.930;2023-05-29T22:01:00;10.60;91.70
44695;DHT22;32845;59.422;17.930;2023-05-29T22:05:31;10.60;92.10
44695;DHT22;32845;59.422;17.930;2023-05-29T22:10:02;10.50;92.50
44695;DHT22;32845;59.422;17.930;2023-05-29T22:14:32;10.40;92.50
44695;DHT22;32845;59.422;17.930;2023-05-29T22:19:03;10.40;92.80
44695;DHT22;32845;59.422;17.930;2023-05-29T22:23:34;10.30;92.80
44695;DHT22;32845;59.422;17.930;2023-05-29T22:28:05;10.30;92.80
44695;DHT22;32845;59.422;17.930;2023-05-29T22:32:36;10.20;93.20
44695;DHT22;32845;59.422;17.930;2023-05-29T22:37:11;10.10;93.30
44695;DHT22;32845;59.422;17.930;2023-05-29T22:41:42;10.00;93.40
44695;DHT22;32845;59.422;17.930;2023-05-29T22:46:13;9.90;94.00
44695;DHT22;32845;59.422;17.930;2023-05-29T22:50:44;9.80;94.10
44695;DHT22;32845;59.422;17.930;2023-05-29T22:55:14;9.80;94.30
44695;DHT22;32845;59.422;17.930;2023-05-29T22:59:46;9.70;94.70
44695;DHT22;32845;59.422;17.930;2023-05-29T23:04:17;9.60;94.70
44695;DHT22;32845;59.422;17.930;2023-05-29T23:08:48;9.60;95.10
44695;DHT22;32845;59.422;17.930;2023-05-29T23:13:18;9.50;95.40
44695;DHT22;32845;59.422;17.930;2023-05-29T23:17:49;9.40;95.60
44695;DHT22;32845;59.422;17.930;2023-05-29T23:22:20;9.40;96.10
44695;DHT22;32845;59.422;17.930;2023-05-29T23:26:51;9.30;96.20
44695;DHT22;32845;59.422;17.930;2023-05-29T23:31:23;9.20;96.70
44695;DHT22;32845;59.422;17.930;2023-05-29T23:35:53;9.20;97.10
44695;DHT22;32845;59.422;17.930;2023-05-29T23:40:24;9.10;97.50
44695;DHT22;32845;59.422;17.930;2023-05-29T23:44:54;9.00;98.00
44695;DHT22;32845;59.422;17.930;2023-05-29T23:49:25;9.00;98.80
44695;DHT22;32845;59.422;17.930;2023-05-29T23:53:58;9.00;99.90
44695;DHT22;32845;59.422;17.930;2023-05-29T23:58:29;9.00;99.90
